createdAt,value
2023-04-08T00:01:20.137Z,85776.44
2023-04-08T00:03:47.406Z,85729.69
2023-04-08T00:06:14.516Z,85722.75
2023-04-08T00:08:41.906Z,85768.09
2023-04-08T00:11:08.850Z,85742.00
2023-04-08T00:13:36.066Z,85737.81
2023-04-08T00:16:03.485Z,85748.16
2023-04-08T00:18:30.554Z,85741.91
2023-04-08T00:20:57.572Z,85774.28
2023-04-08T00:23:24.646Z,85786.72
2023-04-08T00:25:51.778Z,85762.63
2023-04-08T00:28:18.820Z,85736.38
2023-04-08T00:30:45.861Z,85743.94
2023-04-08T00:33:13.243Z,85766.69
2023-04-08T00:35:40.371Z,85771.47
2023-04-08T00:38:08.205Z,85745.34
2023-04-08T00:40:35.419Z,85728.09
2023-04-08T00:43:02.709Z,85713.03
2023-04-08T00:45:29.783Z,85768.72
2023-04-08T00:48:03.836Z,85757.69
2023-04-08T00:50:30.971Z,85712.94
2023-04-08T00:52:57.955Z,85761.13
2023-04-08T00:55:25.019Z,85718.50
2023-04-08T00:57:52.165Z,85757.72
2023-04-08T01:00:19.381Z,85733.50
2023-04-08T01:02:57.232Z,85734.84
2023-04-08T01:05:51.774Z,85712.09
2023-04-08T01:08:19.082Z,85761.66
2023-04-08T01:10:51.704Z,85729.31
2023-04-08T01:13:22.050Z,85743.09
2023-04-08T01:15:50.626Z,85726.47
2023-04-08T01:18:18.765Z,85745.03
2023-04-08T01:20:46.903Z,85758.09
2023-04-08T01:23:23.389Z,85770.47
2023-04-08T01:25:53.806Z,85729.22
2023-04-08T01:28:23.865Z,85750.50
2023-04-08T01:30:52.534Z,85756.63
2023-04-08T01:33:20.824Z,85766.28
2023-04-08T01:35:48.385Z,85773.13
2023-04-08T01:38:18.409Z,85734.59
2023-04-08T01:40:48.039Z,85670.50
2023-04-08T01:43:17.541Z,85777.94
2023-04-08T01:45:46.091Z,85778.59
2023-04-08T01:48:14.560Z,85770.44
2023-04-08T01:50:46.290Z,85700.19
2023-04-08T01:53:14.192Z,85778.00
2023-04-08T01:55:42.627Z,85769.69
2023-04-08T01:58:17.360Z,85759.28
2023-04-08T02:00:44.948Z,85745.31
2023-04-08T02:03:18.027Z,85782.53
2023-04-08T02:05:46.649Z,85792.25
2023-04-08T02:08:13.719Z,85775.63
2023-04-08T02:10:41.080Z,85702.66
2023-04-08T02:13:08.620Z,85764.56
2023-04-08T02:15:40.852Z,85799.00
2023-04-08T02:18:17.669Z,85807.94
2023-04-08T02:20:51.870Z,85732.78
2023-04-08T02:23:25.082Z,85768.66
2023-04-08T02:25:57.014Z,85785.13
2023-04-08T02:28:29.196Z,85762.34
2023-04-08T02:30:58.314Z,85800.34
2023-04-08T02:33:26.328Z,85747.91
2023-04-08T02:35:55.126Z,85805.78
2023-04-08T02:38:24.376Z,85760.41
2023-04-08T02:40:51.748Z,85697.59
2023-04-08T02:43:18.927Z,85807.84
2023-04-08T02:45:46.195Z,85710.75
2023-04-08T02:48:13.244Z,85766.53
2023-04-08T02:50:41.063Z,85691.41
2023-04-08T02:53:09.703Z,85801.59
2023-04-08T02:55:38.133Z,85754.78
2023-04-08T02:58:05.170Z,85740.97
2023-04-08T03:00:32.462Z,85799.59
2023-04-08T03:02:59.733Z,85800.97
2023-04-08T03:05:27.657Z,85811.97
2023-04-08T03:07:54.785Z,85768.53
2023-04-08T03:10:21.692Z,85730.00
2023-04-08T03:12:48.741Z,85820.16
2023-04-08T03:15:16.138Z,85783.06
2023-04-08T03:17:43.373Z,85794.13
2023-04-08T03:20:10.971Z,85790.69
2023-04-08T03:22:37.990Z,85787.94
2023-04-08T03:25:05.350Z,85805.78
2023-04-08T03:27:32.490Z,85804.41
2023-04-08T03:29:59.470Z,85796.09
2023-04-08T03:32:26.760Z,85794.13
2023-04-08T03:34:53.951Z,85803.06
2023-04-08T03:37:21.108Z,85787.25
2023-04-08T03:39:48.208Z,85793.44
2023-04-08T03:42:15.312Z,85768.75
2023-04-08T03:44:42.345Z,85793.50
2023-04-08T03:47:09.342Z,85789.94
2023-04-08T03:49:36.683Z,85807.88
2023-04-08T03:52:03.725Z,85783.75
2023-04-08T03:54:31.002Z,85786.50
2023-04-08T03:56:58.003Z,85776.91
2023-04-08T03:59:25.015Z,85816.84
2023-04-08T04:01:53.761Z,85823.75
2023-04-08T04:04:21.464Z,85770.00
2023-04-08T04:06:48.853Z,85818.25
2023-04-08T04:09:16.953Z,85794.81
2023-04-08T04:11:44.076Z,85805.13
2023-04-08T04:14:11.311Z,85746.63
2023-04-08T04:16:38.458Z,85823.72
2023-04-08T04:19:05.833Z,85807.22
2023-04-08T04:21:33.534Z,85814.03
2023-04-08T04:24:00.602Z,85771.31
2023-04-08T04:26:27.566Z,85743.16
2023-04-08T04:28:54.547Z,85717.63
2023-04-08T04:31:23.348Z,85787.97
2023-04-08T04:33:50.463Z,85803.03
2023-04-08T04:36:17.584Z,85767.16
2023-04-08T04:38:45.470Z,85736.78
2023-04-08T04:41:12.995Z,85779.59
2023-04-08T04:43:40.028Z,85727.97
2023-04-08T04:46:09.103Z,85753.50
2023-04-08T04:48:36.753Z,85777.63
2023-04-08T04:51:03.877Z,85745.94
2023-04-08T04:53:31.906Z,85818.28
2023-04-08T04:56:01.347Z,85805.16
2023-04-08T04:58:36.170Z,85827.94
2023-04-08T05:01:03.049Z,85834.13
2023-04-08T05:03:30.175Z,85814.81
2023-04-08T05:05:57.090Z,85758.38
2023-04-08T05:08:24.940Z,85801.09
2023-04-08T05:10:55.795Z,85772.84
2023-04-08T05:13:22.871Z,85839.00
2023-04-08T05:15:50.163Z,85799.06
2023-04-08T05:18:17.504Z,85782.59
2023-04-08T05:20:44.574Z,85785.41
2023-04-08T05:23:11.469Z,85804.72
2023-04-08T05:25:38.509Z,85839.16
2023-04-08T05:28:05.811Z,85829.47
2023-04-08T05:30:32.993Z,85839.19
2023-04-08T05:33:00.814Z,85811.59
2023-04-08T05:35:28.892Z,85836.44
2023-04-08T05:37:55.892Z,85786.13
2023-04-08T05:40:22.950Z,85840.53
2023-04-08T05:42:50.203Z,85790.34
2023-04-08T05:45:17.437Z,85837.84
2023-04-08T05:47:44.542Z,85844.75
2023-04-08T05:50:11.699Z,85782.72
2023-04-08T05:52:45.556Z,85845.50
2023-04-08T05:55:14.443Z,85823.47
2023-04-08T05:57:41.770Z,85806.25
2023-04-08T06:00:10.851Z,85833.19
2023-04-08T06:02:38.747Z,85818.72
2023-04-08T06:05:06.741Z,85807.75
2023-04-08T06:07:34.252Z,85846.31
2023-04-08T06:10:01.546Z,85836.72
2023-04-08T06:12:28.753Z,85763.69
2023-04-08T06:14:56.620Z,85853.25
2023-04-08T06:17:24.102Z,85825.72
2023-04-08T06:19:51.275Z,85844.34
2023-04-08T06:22:18.438Z,85841.59
2023-04-08T06:24:47.860Z,85848.47
2023-04-08T06:27:15.359Z,85853.31
2023-04-08T06:29:43.086Z,85816.16
2023-04-08T06:32:10.680Z,85850.56
2023-04-08T06:34:38.249Z,85768.00
2023-04-08T06:37:06.554Z,85833.41
2023-04-08T06:39:34.030Z,85849.28
2023-04-08T06:42:01.747Z,85841.00
2023-04-08T06:44:47.551Z,85847.91
2023-04-08T06:47:14.892Z,85839.69
2023-04-08T06:49:41.876Z,85799.72
2023-04-08T06:52:09.076Z,85795.69
2023-04-08T06:54:36.343Z,85835.59
2023-04-08T06:57:04.406Z,85836.31
2023-04-08T06:59:31.356Z,85829.44
2023-04-08T07:01:58.642Z,85770.28
2023-04-08T07:04:26.289Z,85761.38
2023-04-08T07:06:55.459Z,85844.63
2023-04-08T07:09:22.556Z,85852.22
2023-04-08T07:11:49.649Z,85861.19
2023-04-08T07:14:16.730Z,85851.56
2023-04-08T07:16:43.822Z,85847.44
2023-04-08T07:19:10.986Z,85839.88
2023-04-08T07:21:38.014Z,85853.66
2023-04-08T07:24:05.113Z,85811.00
2023-04-08T07:26:32.072Z,85749.75
2023-04-08T07:28:59.237Z,85868.78
2023-04-08T07:31:28.791Z,85853.69
2023-04-08T07:33:56.082Z,85857.81
2023-04-08T07:36:23.180Z,85804.16
2023-04-08T07:38:50.776Z,85845.41
2023-04-08T07:41:17.992Z,85848.19
2023-04-08T07:43:45.045Z,85751.88
2023-04-08T07:46:12.187Z,85852.28
2023-04-08T07:48:39.280Z,85842.00
2023-04-08T07:51:10.984Z,85804.84
2023-04-08T07:53:39.688Z,85791.78
2023-04-08T07:56:14.491Z,85857.13
2023-04-08T07:58:41.870Z,85808.97
2023-04-08T08:01:22.745Z,85850.91
2023-04-08T08:03:52.095Z,85860.56
2023-04-08T08:06:19.834Z,85821.34
2023-04-08T08:08:47.015Z,85816.53
2023-04-08T08:11:14.203Z,85854.38
2023-04-08T08:13:41.118Z,85815.84
2023-04-08T08:16:11.907Z,85866.06
2023-04-08T08:18:42.800Z,85822.72
2023-04-08T08:21:10.173Z,85842.66
2023-04-08T08:23:37.980Z,85863.31
2023-04-08T08:26:07.743Z,85823.41
2023-04-08T08:28:34.729Z,85865.38
2023-04-08T08:31:02.595Z,85850.91
2023-04-08T08:33:29.806Z,85836.47
2023-04-08T08:35:58.273Z,85890.16
2023-04-08T08:38:27.356Z,85882.56
2023-04-08T08:40:56.407Z,85817.91
2023-04-08T08:43:24.858Z,85879.81
2023-04-08T08:45:52.005Z,85800.72
2023-04-08T08:48:19.268Z,85819.28
2023-04-08T08:50:46.342Z,85835.09
2023-04-08T08:53:13.690Z,85807.59
2023-04-08T08:56:09.342Z,85807.59
2023-04-08T08:58:35.920Z,85877.06
2023-04-08T09:01:03.171Z,85824.78
2023-04-08T09:03:30.535Z,85856.41
2023-04-08T09:06:00.101Z,85762.88
2023-04-08T09:08:35.174Z,85815.16
2023-04-08T09:11:20.503Z,85881.19
2023-04-08T09:13:48.238Z,85824.09
2023-04-08T09:16:19.002Z,85873.63
2023-04-08T09:18:51.031Z,85866.06
2023-04-08T09:21:18.658Z,85890.81
2023-04-08T09:23:48.234Z,85860.56
2023-04-08T09:26:23.468Z,85892.91
2023-04-08T09:29:25.045Z,85758.78
2023-04-08T09:31:58.201Z,85867.44
2023-04-08T09:34:30.873Z,85865.38
2023-04-08T09:36:58.246Z,85877.06
2023-04-08T09:39:25.516Z,85905.28
2023-04-08T09:41:53.275Z,85875.69
2023-04-08T09:44:21.941Z,85871.56
2023-04-08T09:46:55.199Z,85903.91
2023-04-08T09:49:38.462Z,85852.28
2023-04-08T09:52:33.343Z,85889.44
2023-04-08T09:55:04.671Z,85842.00
2023-04-08T09:57:55.291Z,85846.78
2023-04-08T10:00:33.159Z,85846.81
2023-04-08T10:03:09.708Z,85893.59
2023-04-08T10:05:43.551Z,85861.91
2023-04-08T10:08:15.242Z,85898.41
2023-04-08T10:10:47.975Z,85858.50
2023-04-08T10:13:16.963Z,85882.59
2023-04-08T10:15:45.894Z,85872.94
2023-04-08T10:18:14.247Z,85899.06
2023-04-08T10:20:42.726Z,85896.31
2023-04-08T10:23:13.462Z,85910.78
2023-04-08T10:25:48.612Z,85907.34
2023-04-08T10:28:17.743Z,85905.25
2023-04-08T10:30:48.710Z,85907.34
2023-04-08T10:33:16.782Z,85871.56
2023-04-08T10:36:15.122Z,85898.38
2023-04-08T10:38:42.930Z,85890.78
2023-04-08T10:41:21.819Z,85841.28
2023-04-08T10:43:49.128Z,85903.19
2023-04-08T10:46:17.436Z,85883.25
2023-04-08T10:48:45.092Z,85859.19
2023-04-08T10:51:12.275Z,85916.97
2023-04-08T10:53:42.254Z,85908.00
2023-04-08T10:56:13.266Z,85907.31
2023-04-08T10:58:52.285Z,85860.56
2023-04-08T11:01:20.055Z,85843.34
2023-04-08T11:03:47.429Z,85863.31
2023-04-08T11:06:14.964Z,85899.78
2023-04-08T11:08:42.409Z,85890.13
2023-04-08T11:11:11.093Z,85867.44
2023-04-08T11:13:46.226Z,85893.59
2023-04-08T11:16:20.955Z,85883.94
2023-04-08T11:18:48.432Z,85835.78
2023-04-08T11:21:16.877Z,85867.44
2023-04-08T11:23:43.927Z,85879.81
2023-04-08T11:26:11.569Z,85895.63
2023-04-08T11:28:38.974Z,85899.06
2023-04-08T11:31:06.394Z,85817.22
2023-04-08T11:33:35.308Z,85860.56
2023-04-08T11:36:05.776Z,85885.31
2023-04-08T11:38:33.017Z,85871.56
2023-04-08T11:41:00.632Z,85865.34
2023-04-08T11:43:28.812Z,85879.13
2023-04-08T11:45:56.034Z,85849.53
2023-04-08T11:48:24.058Z,85850.91
2023-04-08T11:51:09.195Z,85874.28
2023-04-08T11:53:39.040Z,85889.44
2023-04-08T11:56:23.527Z,85847.50
2023-04-08T11:58:52.260Z,85859.88
2023-04-08T12:01:19.880Z,85853.69
2023-04-08T12:04:00.500Z,85879.13
2023-04-08T12:06:49.024Z,85753.28
2023-04-08T12:09:21.349Z,85807.56
2023-04-08T12:11:48.865Z,85870.16
2023-04-08T12:14:16.188Z,85848.13
2023-04-08T12:16:43.598Z,85867.44
2023-04-08T12:19:10.939Z,85868.78
2023-04-08T12:21:38.452Z,85831.63
2023-04-08T12:24:05.688Z,85863.28
2023-04-08T12:26:33.289Z,85827.53
2023-04-08T12:29:00.873Z,85808.94
2023-04-08T12:31:28.715Z,85845.38
2023-04-08T12:33:55.979Z,85852.25
2023-04-08T12:36:23.440Z,85811.00
2023-04-08T12:38:50.971Z,85773.91
2023-04-08T12:41:18.687Z,85822.00
2023-04-08T12:43:46.009Z,85767.72
2023-04-08T12:46:13.701Z,85846.09
2023-04-08T12:48:41.035Z,85843.34
2023-04-08T12:51:10.590Z,85798.63
2023-04-08T12:53:37.862Z,85806.88
2023-04-08T12:56:05.786Z,85843.97
2023-04-08T12:58:33.177Z,85848.06
2023-04-08T13:01:00.630Z,85813.69
2023-04-08T13:03:30.650Z,85846.72
2023-04-08T13:05:59.363Z,85834.31
2023-04-08T13:08:26.626Z,85834.28
2023-04-08T13:10:55.585Z,85776.56
2023-04-08T13:13:23.030Z,85756.63
2023-04-08T13:15:51.151Z,85821.91
2023-04-08T13:18:18.500Z,85749.72
2023-04-08T13:20:52.520Z,85788.88
2023-04-08T13:23:22.514Z,85800.53
2023-04-08T13:44:20.229Z,85820.41
2023-04-08T13:46:48.603Z,85779.19
2023-04-08T14:34:30.871Z,85644.66
2023-04-08T14:36:58.953Z,85764.16
2023-04-08T14:39:29.968Z,85733.88
2023-04-08T14:41:58.577Z,85577.41
2023-04-08T14:44:26.511Z,85657.72
2023-04-08T14:46:54.505Z,85746.28
2023-04-08T14:49:22.804Z,85699.59
2023-04-08T14:51:53.213Z,85642.63
2023-04-08T14:54:21.913Z,85563.00
2023-04-08T14:56:49.555Z,85625.41
2023-04-08T14:59:17.326Z,85670.75
2023-04-08T15:01:45.725Z,85654.28
2023-04-08T15:04:14.924Z,85642.59
2023-04-08T15:07:29.052Z,85765.50
2023-04-08T15:09:57.036Z,85544.47
2023-04-08T15:12:24.616Z,85701.69
2023-04-08T15:14:52.038Z,85572.59
2023-04-08T15:17:19.086Z,85554.06
2023-04-08T15:19:47.105Z,85573.28
2023-04-08T15:22:14.333Z,85582.91
2023-04-08T15:24:42.725Z,85719.56
2023-04-08T15:27:10.018Z,85640.56
2023-04-08T15:29:37.177Z,85712.66
2023-04-08T15:32:04.357Z,85538.94
2023-04-08T15:34:31.333Z,85563.66
2023-04-08T15:36:58.594Z,85677.66
2023-04-08T15:39:26.200Z,85659.81
2023-04-08T15:41:53.431Z,85740.13
2023-04-08T15:44:20.816Z,85838.41
2023-04-08T15:46:47.876Z,85799.91
2023-04-08T15:49:14.985Z,85595.94
2023-04-08T15:51:44.700Z,85598.00
2023-04-08T15:54:12.050Z,85657.75
2023-04-08T15:56:39.090Z,85550.66
2023-04-08T15:59:06.275Z,85640.59
2023-04-08T16:01:33.443Z,85674.91
2023-04-08T16:04:01.188Z,85729.91
2023-04-08T16:06:28.453Z,85658.44
2023-04-08T16:08:56.940Z,85604.88
2023-04-08T16:11:25.373Z,85850.88
2023-04-08T16:13:52.893Z,85626.84
2023-04-08T16:16:20.106Z,85742.97
2023-04-08T16:18:47.634Z,85577.41
2023-04-08T16:21:14.807Z,85641.22
2023-04-08T16:23:42.163Z,85696.91
2023-04-08T16:26:09.277Z,85569.81
2023-04-08T16:28:39.086Z,85758.78
2023-04-08T16:31:07.060Z,85596.56
2023-04-08T16:33:34.108Z,85741.59
2023-04-08T16:36:02.606Z,85857.13
2023-04-08T16:38:29.589Z,85614.41
2023-04-08T16:40:59.812Z,85782.16
2023-04-08T16:43:28.259Z,85757.41
2023-04-08T16:45:55.508Z,85608.91
2023-04-08T16:48:23.386Z,85658.38
2023-04-08T16:50:50.374Z,85635.03
2023-04-08T16:53:17.361Z,85750.53
2023-04-08T16:55:44.489Z,85610.97
2023-04-08T16:58:11.620Z,85619.88
2023-04-08T17:00:39.129Z,85695.41
2023-04-08T17:03:06.276Z,85714.72
2023-04-08T17:05:33.606Z,85678.97
2023-04-08T17:08:01.395Z,85789.00
2023-04-08T17:10:28.504Z,85610.25
2023-04-08T17:12:55.522Z,85626.06
2023-04-08T17:15:22.617Z,85667.28
2023-04-08T17:17:49.849Z,85758.75
2023-04-08T17:20:16.914Z,85789.03
2023-04-08T17:22:44.030Z,85729.16
2023-04-08T17:25:11.761Z,85820.66
2023-04-08T17:27:38.747Z,85878.44
2023-04-08T17:30:11.284Z,85844.72
2023-04-08T17:32:38.874Z,85879.81
2023-04-08T17:35:06.405Z,85885.31
2023-04-08T17:37:33.458Z,85888.06
2023-04-08T17:40:00.586Z,85833.00
2023-04-08T17:42:27.564Z,85864.69
2023-04-08T17:44:56.119Z,85845.41
2023-04-08T17:47:23.120Z,85870.19
2023-04-08T17:49:50.389Z,85908.72
2023-04-08T17:52:20.494Z,85907.34
2023-04-08T17:54:47.437Z,85916.97
2023-04-08T17:57:14.420Z,85793.09
2023-04-08T17:59:41.454Z,85923.13
2023-04-08T18:02:08.516Z,85910.75
2023-04-08T18:04:35.654Z,85891.47
2023-04-08T18:07:05.406Z,85854.31
2023-04-08T18:09:32.535Z,85883.91
2023-04-08T18:11:59.566Z,85879.78
2023-04-08T18:14:29.222Z,85837.78
2023-04-08T18:16:56.315Z,85942.44
2023-04-08T18:19:26.396Z,85894.19
2023-04-08T18:21:53.583Z,85903.13
2023-04-08T18:24:21.706Z,85952.72
2023-04-08T18:27:01.470Z,85948.59
2023-04-08T18:29:30.822Z,85912.81
2023-04-08T18:31:57.787Z,85951.38
2023-04-08T18:34:25.453Z,85890.75
2023-04-08T18:36:52.423Z,85904.53
2023-04-08T18:39:19.547Z,85954.81
2023-04-08T18:41:46.563Z,85914.19
2023-04-08T18:44:13.635Z,85952.75
2023-04-08T18:46:40.748Z,85959.63
2023-04-08T18:49:07.775Z,85951.38
2023-04-08T18:51:34.864Z,85910.72
2023-04-08T18:54:02.155Z,85954.13
2023-04-08T18:56:29.125Z,85914.19
2023-04-08T18:58:56.213Z,85912.81
2023-04-08T19:01:23.167Z,85870.13
2023-04-08T19:03:50.418Z,85952.72
2023-04-08T19:06:17.976Z,85882.50
2023-04-08T19:08:46.012Z,85920.41
2023-04-08T19:11:14.935Z,85922.44
2023-04-08T19:13:41.965Z,85956.88
2023-04-08T19:16:09.037Z,85903.88
2023-04-08T19:18:36.284Z,85947.22
2023-04-08T19:21:03.750Z,85963.75
2023-04-08T19:23:32.352Z,85891.41
2023-04-08T19:25:59.601Z,85947.19
2023-04-08T19:28:27.071Z,85868.03
2023-04-08T19:31:00.600Z,85962.38
2023-04-08T19:33:28.271Z,85907.28
2023-04-08T19:35:56.287Z,85954.78
2023-04-08T19:38:24.214Z,85936.19
2023-04-08T19:40:51.359Z,85965.13
2023-04-08T19:43:18.287Z,85912.72
2023-04-08T19:45:45.253Z,85912.00
2023-04-08T19:48:12.276Z,85897.53
2023-04-08T19:50:39.780Z,85943.00
2023-04-08T19:53:08.094Z,85966.44
2023-04-08T19:55:37.510Z,85920.94
2023-04-08T19:58:05.089Z,85963.69
2023-04-08T20:00:32.691Z,85955.41
2023-04-08T20:03:00.141Z,85912.69
2023-04-08T20:05:27.213Z,85963.69
2023-04-08T20:07:54.246Z,85922.19
2023-04-08T20:10:21.362Z,85951.22
2023-04-08T20:12:48.310Z,85922.31
2023-04-08T20:15:24.158Z,85972.59
2023-04-08T20:17:52.789Z,85935.41
2023-04-08T20:20:20.252Z,85925.06
2023-04-08T20:22:47.294Z,85927.16
2023-04-08T20:25:14.372Z,85956.78
2023-04-08T20:27:41.517Z,85915.41
2023-04-08T20:30:09.503Z,85938.16
2023-04-08T20:32:36.852Z,85963.63
2023-04-08T20:35:04.574Z,85954.00
2023-04-08T20:37:32.624Z,85950.53
2023-04-08T20:39:59.585Z,85947.09
2023-04-08T20:42:26.827Z,85913.41
2023-04-08T20:44:53.934Z,85961.59
2023-04-08T20:47:21.126Z,85916.13
2023-04-08T20:49:48.353Z,85916.78
2023-04-08T20:52:15.395Z,85937.47
2023-04-08T20:54:42.500Z,85923.69
2023-04-08T20:57:09.550Z,85859.59
2023-04-08T20:59:37.070Z,85948.50
2023-04-08T21:02:04.259Z,85918.22
2023-04-08T21:04:31.947Z,85876.13
2023-04-08T21:06:58.985Z,85889.88
2023-04-08T21:09:26.177Z,85938.84
2023-04-08T21:11:53.240Z,85945.69
2023-04-08T21:14:20.484Z,85938.84
2023-04-08T21:16:47.542Z,85944.34
2023-04-08T21:19:14.662Z,85944.34
2023-04-08T21:21:41.759Z,85937.41
2023-04-08T21:24:09.996Z,85905.66
2023-04-08T21:26:36.928Z,85842.34
2023-04-08T21:29:04.028Z,85948.41
2023-04-08T21:31:31.055Z,85943.56
2023-04-08T21:33:58.096Z,85931.16
2023-04-08T21:36:25.087Z,85949.78
2023-04-08T21:38:52.173Z,85898.72
2023-04-08T21:41:19.785Z,85867.09
2023-04-08T21:43:47.030Z,85853.31
2023-04-08T21:46:14.021Z,85904.31
2023-04-08T21:48:40.984Z,85890.53
2023-04-08T21:51:10.515Z,85949.78
2023-04-08T21:53:38.585Z,85890.50
2023-04-08T21:56:08.024Z,85952.47
2023-04-08T21:58:38.114Z,85924.25
2023-04-08T22:01:05.162Z,85916.66
2023-04-08T22:03:32.306Z,85948.44
2023-04-08T22:05:59.331Z,85909.06
2023-04-08T22:08:26.342Z,85825.63
2023-04-08T22:10:53.406Z,85896.63
2023-04-08T22:13:21.355Z,85946.31
2023-04-08T22:15:48.455Z,85945.66
2023-04-08T22:18:15.717Z,85958.03
2023-04-08T22:20:42.680Z,85915.25
2023-04-08T22:23:09.665Z,85942.84
2023-04-08T22:25:36.566Z,85925.66
2023-04-08T22:28:03.478Z,85935.97
2023-04-08T22:30:31.004Z,85933.84
2023-04-08T22:32:58.251Z,85920.78
2023-04-08T22:35:25.197Z,85942.19
2023-04-08T22:37:52.153Z,85922.16
2023-04-08T22:40:19.194Z,85945.63
2023-04-08T22:42:46.106Z,85944.28
2023-04-08T22:45:13.093Z,85945.66
2023-04-08T22:47:40.074Z,85924.34
2023-04-08T22:50:07.473Z,85878.72
2023-04-08T22:52:34.492Z,85871.09
2023-04-08T22:55:01.664Z,85937.34
2023-04-08T22:57:28.641Z,85904.22
2023-04-08T22:59:55.942Z,85883.56
2023-04-08T23:02:23.063Z,85893.25
2023-04-08T23:04:54.700Z,85927.72
2023-04-08T23:07:21.850Z,85863.66
2023-04-08T23:09:48.764Z,85922.25
2023-04-08T23:12:15.992Z,85923.66
2023-04-08T23:14:42.947Z,85912.63
2023-04-08T23:17:10.170Z,85849.22
2023-04-08T23:19:37.183Z,85916.66
2023-04-08T23:22:04.155Z,85873.31
2023-04-08T23:24:33.947Z,85824.44
2023-04-08T23:27:01.990Z,85852.00
2023-04-08T23:29:28.897Z,85900.25
2023-04-08T23:31:55.794Z,85894.06
2023-04-08T23:34:22.960Z,85892.00
2023-04-08T23:36:50.058Z,85864.44
2023-04-08T23:39:17.811Z,85890.63
2023-04-08T23:41:44.691Z,85852.03
2023-04-08T23:44:11.728Z,85897.44
2023-04-08T23:46:38.782Z,85856.84
2023-04-08T23:49:05.900Z,85889.94
2023-04-08T23:51:36.454Z,85846.50
2023-04-08T23:54:03.487Z,85882.31
2023-04-08T23:56:30.869Z,85896.06
2023-04-08T23:58:57.850Z,85886.44
